createdAt,value
2019-05-17T00:01:21.230Z,14.45
2019-05-17T00:03:52.993Z,14.36
2019-05-17T00:06:24.713Z,14.39
2019-05-17T00:08:56.846Z,14.26
2019-05-17T00:11:28.340Z,14.34
2019-05-17T00:14:02.031Z,14.30
2019-05-17T00:16:33.654Z,14.32
2019-05-17T00:19:07.679Z,14.36
2019-05-17T00:21:39.456Z,14.34
2019-05-17T00:24:11.168Z,14.30
2019-05-17T00:26:43.092Z,14.33
2019-05-17T00:29:17.155Z,14.15
2019-05-17T00:31:48.390Z,14.24
2019-05-17T00:34:21.764Z,14.24
2019-05-17T00:36:57.269Z,14.26
2019-05-17T00:39:28.444Z,14.30
2019-05-17T00:42:00.130Z,14.32
2019-05-17T00:44:31.852Z,14.28
2019-05-17T00:47:03.721Z,14.25
2019-05-17T00:49:37.124Z,14.09
2019-05-17T00:52:08.990Z,14.07
2019-05-17T00:54:40.756Z,14.09
2019-05-17T00:57:16.453Z,14.08
2019-05-17T00:59:47.703Z,14.05
2019-05-17T01:02:19.458Z,13.91
2019-05-17T01:04:51.259Z,13.69
2019-05-17T01:07:23.125Z,13.70
2019-05-17T01:09:56.607Z,13.65
2019-05-17T01:12:29.408Z,13.66
2019-05-17T01:15:01.315Z,13.59
2019-05-17T01:17:33.342Z,13.54
2019-05-17T01:20:06.865Z,13.64
2019-05-17T01:22:39.026Z,13.67
2019-05-17T01:25:12.239Z,13.72
2019-05-17T01:27:44.466Z,13.74
2019-05-17T01:30:17.641Z,13.61
2019-05-17T01:32:49.676Z,13.55
2019-05-17T01:35:21.545Z,13.58
2019-05-17T01:37:56.355Z,13.61
2019-05-17T01:40:27.325Z,13.54
2019-05-17T01:42:59.188Z,13.34
2019-05-17T01:45:32.876Z,13.36
2019-05-17T01:48:07.473Z,13.42
2019-05-17T01:50:39.775Z,13.42
2019-05-17T01:53:11.674Z,13.32
2019-05-17T01:55:43.463Z,13.39
2019-05-17T01:58:16.409Z,13.43
2019-05-17T02:00:48.697Z,13.34
2019-05-17T02:03:20.619Z,13.37
2019-05-17T02:05:52.523Z,13.39
2019-05-17T02:08:26.297Z,13.26
2019-05-17T02:10:57.965Z,13.40
2019-05-17T02:13:29.836Z,13.45
2019-05-17T02:16:01.741Z,13.47
2019-05-17T02:18:33.925Z,13.32
2019-05-17T02:21:06.524Z,13.35
2019-05-17T02:23:40.930Z,13.38
2019-05-17T02:26:12.710Z,13.39
2019-05-17T02:28:44.724Z,13.44
2019-05-17T02:31:16.718Z,13.46
2019-05-17T02:33:48.613Z,13.50
2019-05-17T02:36:22.875Z,13.42
2019-05-17T02:38:54.074Z,13.42
2019-05-17T02:41:26.542Z,13.27
2019-05-17T02:44:02.156Z,13.05
2019-05-17T02:46:33.854Z,13.04
2019-05-17T02:49:06.439Z,12.92
2019-05-17T02:51:38.689Z,12.94
2019-05-17T02:54:13.309Z,12.94
2019-05-17T02:56:44.148Z,12.95
2019-05-17T02:59:15.763Z,12.94
2019-05-17T03:01:47.367Z,13.05
2019-05-17T03:04:19.138Z,13.09
2019-05-17T03:06:53.229Z,13.20
2019-05-17T03:09:24.445Z,13.23
2019-05-17T03:11:57.070Z,13.16
2019-05-17T03:14:33.446Z,13.18
2019-05-17T03:17:09.220Z,13.12
2019-05-17T03:19:47.032Z,13.15
2019-05-17T03:22:23.075Z,13.19
2019-05-17T03:24:58.078Z,13.17
2019-05-17T03:27:38.192Z,13.26
2019-05-17T03:30:36.406Z,13.24
2019-05-17T03:33:15.641Z,13.28
2019-05-17T03:35:57.643Z,13.40
2019-05-17T03:38:42.998Z,13.43
2019-05-17T03:41:23.441Z,13.43
2019-05-17T03:43:49.132Z,13.41
2019-05-17T03:46:23.284Z,13.54
2019-05-17T03:49:04.238Z,13.64
2019-05-17T03:51:42.993Z,13.65
2019-05-17T03:54:26.510Z,13.72
2019-05-17T03:57:13.244Z,13.85
2019-05-17T03:59:43.687Z,13.98
2019-05-17T04:02:15.606Z,14.09
2019-05-17T04:05:04.319Z,14.19
2019-05-17T04:07:46.732Z,14.31
2019-05-17T04:10:33.370Z,14.35
2019-05-17T04:13:13.020Z,14.40
2019-05-17T04:15:47.910Z,14.41
2019-05-17T04:18:23.975Z,14.53
2019-05-17T04:20:57.092Z,14.57
2019-05-17T04:23:28.871Z,14.70
2019-05-17T04:26:03.798Z,14.78
2019-05-17T04:28:36.861Z,14.88
2019-05-17T04:31:13.237Z,14.96
2019-05-17T04:33:43.550Z,14.98
2019-05-17T04:36:15.677Z,15.10
2019-05-17T04:38:47.978Z,15.17
2019-05-17T04:41:36.018Z,15.27
2019-05-17T04:43:53.390Z,15.34
2019-05-17T04:46:25.743Z,15.48
2019-05-17T04:48:57.751Z,15.68
2019-05-17T04:51:31.988Z,15.84
2019-05-17T04:54:03.371Z,15.95
2019-05-17T04:56:35.579Z,16.06
2019-05-17T04:59:07.488Z,16.21
2019-05-17T05:01:43.511Z,16.38
2019-05-17T05:04:15.521Z,16.53
2019-05-17T05:06:47.742Z,16.69
2019-05-17T05:09:22.905Z,16.84
2019-05-17T05:12:01.435Z,16.89
2019-05-17T05:14:26.632Z,16.94
2019-05-17T05:16:58.285Z,17.12
2019-05-17T05:19:32.720Z,17.23
2019-05-17T05:22:04.771Z,17.32
2019-05-17T05:24:45.881Z,17.44
2019-05-17T05:27:28.323Z,17.45
2019-05-17T05:30:02.984Z,17.50
2019-05-17T05:32:34.603Z,17.64
2019-05-17T05:35:07.462Z,17.75
2019-05-17T05:37:41.956Z,17.77
2019-05-17T05:40:13.231Z,17.83
2019-05-17T05:42:45.287Z,17.88
2019-05-17T05:45:17.733Z,17.88
2019-05-17T05:47:49.393Z,17.84
2019-05-17T05:50:21.836Z,17.99
2019-05-17T05:52:56.159Z,18.02
2019-05-17T05:55:28.092Z,18.10
2019-05-17T05:58:03.144Z,18.05
2019-05-17T06:00:35.049Z,18.05
2019-05-17T06:03:11.941Z,18.02
2019-05-17T06:05:43.008Z,18.12
2019-05-17T06:08:15.956Z,18.17
2019-05-17T06:10:47.841Z,18.20
2019-05-17T06:13:21.836Z,18.36
2019-05-17T06:15:53.988Z,18.50
2019-05-17T06:18:28.605Z,18.62
2019-05-17T06:21:03.126Z,18.70
2019-05-17T06:23:35.594Z,18.72
2019-05-17T06:26:07.913Z,18.67
2019-05-17T06:28:39.594Z,18.83
2019-05-17T06:31:11.663Z,18.86
2019-05-17T06:33:43.864Z,19.02
2019-05-17T06:36:18.692Z,19.06
2019-05-17T06:38:52.854Z,19.27
2019-05-17T06:41:32.333Z,19.61
2019-05-17T06:44:12.160Z,19.86
2019-05-17T06:46:45.318Z,20.00
2019-05-17T06:49:22.256Z,20.27
2019-05-17T06:51:59.643Z,20.41
2019-05-17T06:54:37.475Z,20.26
2019-05-17T06:57:12.762Z,20.27
2019-05-17T06:59:46.455Z,20.38
2019-05-17T07:02:19.732Z,20.44
2019-05-17T07:05:01.493Z,20.52
2019-05-17T07:07:40.395Z,20.33
2019-05-17T07:10:11.377Z,20.39
2019-05-17T07:12:54.914Z,20.53
2019-05-17T07:15:16.826Z,20.67
2019-05-17T07:17:50.443Z,20.53
2019-05-17T07:20:22.067Z,20.57
2019-05-17T07:22:54.047Z,20.59
2019-05-17T07:25:27.518Z,20.78
2019-05-17T07:28:00.868Z,20.88
2019-05-17T07:30:32.748Z,20.93
2019-05-17T07:33:04.590Z,20.97
2019-05-17T07:35:36.398Z,21.10
2019-05-17T07:38:10.587Z,21.20
2019-05-17T07:40:46.639Z,21.27
2019-05-17T07:43:20.571Z,21.26
2019-05-17T07:45:51.892Z,21.40
2019-05-17T07:48:26.013Z,21.37
2019-05-17T07:50:59.401Z,21.55
2019-05-17T07:53:31.082Z,21.70
2019-05-17T07:56:03.408Z,21.89
2019-05-17T07:58:35.784Z,22.03
2019-05-17T08:01:09.896Z,22.25
2019-05-17T08:03:42.404Z,22.53
2019-05-17T08:06:16.259Z,22.60
2019-05-17T08:08:53.926Z,22.51
2019-05-17T08:11:27.540Z,22.79
2019-05-17T08:13:59.832Z,23.09
2019-05-17T08:16:33.758Z,22.89
2019-05-17T08:19:06.241Z,22.79
2019-05-17T08:21:39.844Z,22.88
2019-05-17T08:24:15.821Z,22.77
2019-05-17T08:26:50.212Z,22.77
2019-05-17T08:29:26.109Z,22.75
2019-05-17T08:32:00.391Z,22.83
2019-05-17T08:34:39.965Z,22.70
2019-05-17T08:37:11.065Z,23.06
2019-05-17T08:39:44.219Z,23.30
2019-05-17T08:42:20.468Z,23.47
2019-05-17T08:44:54.785Z,23.55
2019-05-17T08:47:30.093Z,23.82
2019-05-17T08:50:04.376Z,24.19
2019-05-17T08:52:36.815Z,24.51
2019-05-17T08:55:09.862Z,24.65
2019-05-17T08:57:41.713Z,24.63
2019-05-17T09:00:15.678Z,24.28
2019-05-17T09:02:49.853Z,23.01
2019-05-17T09:05:22.389Z,21.62
2019-05-17T09:07:56.957Z,20.12
2019-05-17T09:10:29.954Z,19.40
2019-05-17T09:13:04.529Z,18.98
2019-05-17T09:15:36.978Z,18.75
2019-05-17T09:18:09.994Z,18.56
2019-05-17T09:20:43.162Z,18.67
2019-05-17T09:23:15.586Z,18.98
2019-05-17T09:25:49.898Z,19.24
2019-05-17T09:28:21.096Z,19.46
2019-05-17T09:30:54.248Z,19.81
2019-05-17T09:33:25.904Z,20.10
2019-05-17T09:35:57.501Z,20.36
2019-05-17T09:38:29.533Z,20.47
2019-05-17T09:41:01.641Z,20.70
2019-05-17T09:43:33.421Z,20.71
2019-05-17T09:46:05.197Z,20.87
2019-05-17T09:48:39.678Z,20.94
2019-05-17T09:51:12.774Z,21.02
2019-05-17T09:53:44.291Z,21.08
2019-05-17T09:56:15.956Z,20.92
2019-05-17T09:58:49.556Z,20.79
2019-05-17T10:01:21.499Z,20.46
2019-05-17T10:03:53.034Z,20.44
2019-05-17T10:06:26.542Z,20.69
2019-05-17T10:09:00.227Z,20.80
2019-05-17T10:11:31.945Z,20.73
2019-05-17T10:14:05.111Z,20.78
2019-05-17T10:16:36.993Z,20.75
2019-05-17T10:19:09.616Z,20.72
2019-05-17T10:21:41.877Z,20.68
2019-05-17T10:24:13.518Z,20.60
2019-05-17T10:26:45.304Z,20.53
2019-05-17T10:29:18.985Z,20.38
2019-05-17T10:31:51.073Z,20.45
2019-05-17T10:34:24.080Z,20.44
2019-05-17T10:36:56.855Z,20.40
2019-05-17T10:39:30.300Z,20.46
2019-05-17T10:42:02.192Z,20.51
2019-05-17T10:44:46.214Z,20.57
2019-05-17T10:47:10.707Z,20.62
2019-05-17T10:49:42.987Z,20.69
2019-05-17T10:52:14.547Z,20.70
2019-05-17T10:54:46.478Z,20.68
2019-05-17T10:57:19.532Z,20.79
2019-05-17T10:59:51.286Z,20.77
2019-05-17T11:02:26.451Z,20.89
2019-05-17T11:05:00.753Z,20.81
2019-05-17T11:07:45.493Z,20.84
2019-05-17T11:10:19.455Z,20.87
2019-05-17T11:12:51.465Z,20.81
2019-05-17T11:15:23.528Z,20.91
2019-05-17T11:17:57.932Z,20.88
2019-05-17T11:20:34.403Z,20.87
2019-05-17T11:23:07.951Z,20.79
2019-05-17T11:25:45.794Z,20.63
2019-05-17T11:28:19.835Z,20.61
2019-05-17T11:30:58.229Z,20.56
2019-05-17T11:33:39.723Z,20.29
2019-05-17T11:36:14.309Z,20.13
2019-05-17T11:38:58.673Z,20.09
2019-05-17T11:41:36.433Z,19.90
2019-05-17T11:44:08.778Z,19.80
2019-05-17T11:46:41.933Z,19.64
2019-05-17T11:49:20.569Z,19.45
2019-05-17T11:51:59.059Z,19.48
2019-05-17T11:54:33.802Z,19.56
2019-05-17T11:57:12.223Z,19.48
2019-05-17T11:59:43.939Z,19.40
2019-05-17T12:02:21.476Z,19.28
2019-05-17T12:04:53.602Z,19.09
2019-05-17T12:07:32.140Z,19.23
2019-05-17T12:10:04.709Z,19.25
2019-05-17T12:12:40.497Z,19.40
2019-05-17T12:15:13.103Z,19.31
2019-05-17T12:17:49.121Z,19.17
2019-05-17T12:20:46.594Z,19.02
2019-05-17T12:23:22.789Z,19.02
2019-05-17T12:26:01.571Z,19.02
2019-05-17T12:28:36.086Z,19.19
2019-05-17T12:31:07.917Z,19.33
2019-05-17T12:33:40.313Z,19.51
2019-05-17T12:36:13.854Z,19.63
2019-05-17T12:38:46.989Z,19.54
2019-05-17T12:41:19.427Z,19.60
2019-05-17T12:43:52.969Z,19.64
2019-05-17T12:46:24.823Z,19.63
2019-05-17T12:49:01.833Z,19.64
2019-05-17T12:51:32.974Z,19.69
2019-05-17T12:54:06.259Z,19.73
2019-05-17T12:56:39.342Z,19.69
2019-05-17T12:59:13.528Z,19.68
2019-05-17T13:01:45.757Z,19.65
2019-05-17T13:04:17.596Z,19.61
2019-05-17T13:06:49.422Z,19.20
2019-05-17T13:09:21.890Z,19.16
2019-05-17T13:11:53.978Z,19.05
2019-05-17T13:14:25.929Z,18.99
2019-05-17T13:16:59.095Z,19.07
2019-05-17T13:19:31.102Z,19.09
2019-05-17T13:22:02.786Z,18.99
2019-05-17T13:24:34.692Z,18.92
2019-05-17T13:27:06.438Z,18.90
2019-05-17T13:29:38.362Z,18.85
2019-05-17T13:32:10.201Z,18.91
2019-05-17T13:34:42.980Z,19.00
2019-05-17T13:37:14.857Z,18.85
2019-05-17T13:39:46.690Z,18.82
2019-05-17T13:42:18.904Z,18.73
2019-05-17T13:44:50.731Z,18.71
2019-05-17T13:47:22.691Z,18.61
2019-05-17T13:49:54.515Z,18.50
2019-05-17T13:52:26.408Z,18.46
2019-05-17T13:54:58.209Z,18.34
2019-05-17T13:57:30.014Z,18.27
2019-05-17T14:00:01.972Z,18.23
2019-05-17T14:02:35.942Z,18.22
2019-05-17T14:05:08.629Z,18.29
2019-05-17T14:07:40.635Z,18.21
2019-05-17T14:10:26.230Z,18.25
2019-05-17T14:12:46.380Z,18.15
2019-05-17T14:15:19.777Z,18.21
2019-05-17T14:17:51.986Z,18.25
2019-05-17T14:20:23.759Z,18.33
2019-05-17T14:22:56.090Z,18.38
2019-05-17T14:25:27.893Z,18.43
2019-05-17T14:28:02.440Z,18.44
2019-05-17T14:30:34.515Z,18.35
2019-05-17T14:33:06.816Z,18.38
2019-05-17T14:35:38.655Z,18.40
2019-05-17T14:38:10.442Z,18.38
2019-05-17T14:41:05.427Z,18.35
2019-05-17T14:43:21.710Z,18.24
2019-05-17T14:45:55.227Z,18.24
2019-05-17T14:48:29.323Z,18.36
2019-05-17T14:51:06.723Z,18.36
2019-05-17T14:53:41.571Z,18.31
2019-05-17T14:56:14.320Z,18.19
2019-05-17T14:58:50.031Z,18.21
2019-05-17T15:01:23.376Z,18.22
2019-05-17T15:03:55.529Z,18.09
2019-05-17T15:06:27.277Z,18.08
2019-05-17T15:09:00.107Z,18.09
2019-05-17T15:11:33.475Z,18.07
2019-05-17T15:14:13.068Z,18.03
2019-05-17T15:16:50.852Z,17.83
2019-05-17T15:19:22.643Z,17.77
2019-05-17T15:21:54.947Z,17.74
2019-05-17T15:24:31.970Z,17.64
2019-05-17T15:27:18.040Z,17.74
2019-05-17T15:29:58.931Z,17.86
2019-05-17T15:32:31.382Z,17.97
2019-05-17T15:35:06.406Z,17.96
2019-05-17T15:37:49.258Z,18.10
2019-05-17T15:40:22.187Z,18.01
2019-05-17T15:43:09.645Z,17.94
2019-05-17T15:45:52.107Z,17.93
2019-05-17T15:48:32.547Z,17.93
2019-05-17T15:51:10.783Z,17.95
2019-05-17T15:53:48.425Z,17.83
2019-05-17T15:56:26.995Z,17.69
2019-05-17T15:59:26.611Z,17.60
2019-05-17T16:02:00.756Z,17.55
2019-05-17T16:04:37.700Z,17.55
2019-05-17T16:07:17.496Z,17.55
2019-05-17T16:09:58.685Z,17.50
2019-05-17T16:12:35.092Z,17.58
2019-05-17T16:15:10.712Z,17.57
2019-05-17T16:17:49.755Z,17.54
2019-05-17T16:20:31.404Z,17.47
2019-05-17T16:23:11.490Z,17.49
2019-05-17T16:26:04.044Z,17.46
2019-05-17T16:28:52.803Z,17.52
2019-05-17T16:31:34.982Z,17.48
2019-05-17T16:34:15.863Z,17.44
2019-05-17T16:36:59.015Z,17.53
2019-05-17T16:39:41.561Z,17.59
2019-05-17T16:42:22.706Z,17.57
2019-05-17T16:45:08.211Z,17.65
2019-05-17T16:47:52.679Z,17.63
2019-05-17T16:50:27.076Z,17.67
2019-05-17T16:53:05.825Z,17.59
2019-05-17T16:55:48.048Z,17.57
2019-05-17T16:58:21.113Z,17.66
2019-05-17T17:00:53.404Z,17.62
2019-05-17T17:03:43.289Z,17.67
2019-05-17T17:06:02.483Z,17.69
2019-05-17T17:08:34.772Z,17.79
2019-05-17T17:11:07.802Z,17.74
2019-05-17T17:13:40.093Z,17.69
2019-05-17T17:16:13.746Z,17.70
2019-05-17T17:18:46.698Z,17.71
2019-05-17T17:21:19.999Z,17.66
2019-05-17T17:23:51.925Z,17.66
2019-05-17T17:26:23.623Z,17.62
2019-05-17T17:28:59.715Z,17.63
2019-05-17T17:31:50.117Z,17.60
2019-05-17T17:34:25.014Z,17.50
2019-05-17T17:37:08.864Z,17.50
2019-05-17T17:39:46.167Z,17.42
2019-05-17T17:42:17.909Z,17.40
2019-05-17T17:44:52.151Z,17.44
2019-05-17T17:47:38.084Z,17.38
2019-05-17T17:50:12.471Z,17.38
2019-05-17T17:52:58.005Z,17.46
2019-05-17T17:55:32.364Z,17.52
2019-05-17T17:58:04.659Z,17.51
2019-05-17T18:00:36.716Z,17.49
2019-05-17T18:03:11.376Z,17.39
2019-05-17T18:05:46.785Z,17.28
2019-05-17T18:08:19.551Z,17.21
2019-05-17T18:10:52.029Z,17.20
2019-05-17T18:13:25.005Z,17.21
2019-05-17T18:15:58.038Z,17.23
2019-05-17T18:18:29.726Z,17.23
2019-05-17T18:21:01.625Z,17.22
2019-05-17T18:23:33.543Z,17.20
2019-05-17T18:26:07.946Z,17.22
2019-05-17T18:28:39.793Z,17.26
2019-05-17T18:31:11.701Z,17.21
2019-05-17T18:33:43.675Z,17.17
2019-05-17T18:36:15.511Z,17.11
2019-05-17T18:38:50.288Z,17.10
2019-05-17T18:41:23.569Z,17.12
2019-05-17T18:43:56.281Z,17.20
2019-05-17T18:46:28.568Z,17.22
2019-05-17T18:49:02.825Z,17.23
2019-05-17T18:51:44.109Z,17.14
2019-05-17T18:54:19.134Z,17.17
2019-05-17T18:56:52.819Z,17.15
2019-05-17T18:59:24.814Z,17.16
2019-05-17T19:01:57.071Z,17.18
2019-05-17T19:04:29.432Z,17.20
2019-05-17T19:07:03.766Z,17.19
2019-05-17T19:09:45.700Z,17.28
2019-05-17T19:12:17.641Z,17.24
2019-05-17T19:14:49.882Z,17.32
2019-05-17T19:17:22.610Z,17.24
2019-05-17T19:19:55.439Z,17.25
2019-05-17T19:22:27.363Z,17.34
2019-05-17T19:24:59.031Z,17.37
2019-05-17T19:27:31.190Z,17.38
2019-05-17T19:30:06.657Z,17.45
2019-05-17T19:32:43.870Z,17.57
2019-05-17T19:35:18.495Z,17.66
2019-05-17T19:37:56.951Z,17.86
2019-05-17T19:40:29.964Z,17.97
2019-05-17T19:43:02.228Z,18.10
2019-05-17T19:45:35.847Z,18.12
2019-05-17T19:48:07.562Z,18.05
2019-05-17T19:50:40.454Z,17.95
2019-05-17T19:53:12.971Z,17.94
2019-05-17T19:55:47.672Z,17.83
2019-05-17T19:58:20.153Z,17.86
2019-05-17T20:00:52.171Z,17.82
2019-05-17T20:03:25.672Z,17.79
2019-05-17T20:05:57.897Z,17.65
2019-05-17T20:08:30.437Z,17.51
2019-05-17T20:11:02.709Z,17.41
2019-05-17T20:13:34.701Z,17.07
2019-05-17T20:16:08.415Z,16.79
2019-05-17T20:18:40.739Z,16.67
2019-05-17T20:21:12.974Z,16.57
2019-05-17T20:23:45.513Z,16.59
2019-05-17T20:26:17.873Z,16.65
2019-05-17T20:28:49.883Z,16.70
2019-05-17T20:31:21.846Z,16.76
2019-05-17T20:33:54.588Z,16.74
2019-05-17T20:36:26.384Z,16.82
2019-05-17T20:38:59.047Z,16.83
2019-05-17T20:41:31.130Z,16.86
2019-05-17T20:44:05.536Z,16.86
2019-05-17T20:46:38.435Z,16.86
2019-05-17T20:49:10.845Z,16.83
2019-05-17T20:51:42.831Z,16.85
2019-05-17T20:54:15.096Z,16.95
2019-05-17T20:56:46.896Z,16.98
2019-05-17T20:59:18.732Z,16.95
2019-05-17T21:01:50.694Z,16.90
2019-05-17T21:04:23.093Z,16.91
2019-05-17T21:06:55.304Z,16.92
2019-05-17T21:09:27.257Z,16.94
2019-05-17T21:12:00.902Z,16.90
2019-05-17T21:14:38.086Z,16.97
2019-05-17T21:17:11.102Z,17.05
2019-05-17T21:19:45.490Z,17.09
2019-05-17T21:22:17.964Z,17.09
2019-05-17T21:24:50.923Z,17.08
2019-05-17T21:27:23.584Z,17.00
2019-05-17T21:29:56.231Z,16.96
2019-05-17T21:32:29.562Z,16.95
2019-05-17T21:35:03.824Z,16.84
2019-05-17T21:37:36.723Z,16.89
2019-05-17T21:40:09.277Z,16.82
2019-05-17T21:42:41.415Z,16.76
2019-05-17T21:45:14.416Z,16.72
2019-05-17T21:47:48.473Z,16.60
2019-05-17T21:50:21.596Z,16.60
2019-05-17T21:52:54.049Z,16.59
2019-05-17T21:55:32.483Z,16.58
2019-05-17T21:58:04.196Z,16.45
2019-05-17T22:01:13.209Z,16.43
2019-05-17T22:03:47.450Z,16.29
2019-05-17T22:06:19.348Z,16.18
2019-05-17T22:08:51.701Z,16.20
2019-05-17T22:11:25.913Z,16.18
2019-05-17T22:13:58.013Z,16.22
2019-05-17T22:16:31.233Z,16.19
2019-05-17T22:19:03.939Z,16.17
2019-05-17T22:21:36.615Z,16.16
2019-05-17T22:24:11.737Z,16.14
2019-05-17T22:26:45.298Z,16.08
2019-05-17T22:29:18.134Z,16.02
2019-05-17T22:31:51.585Z,15.96
2019-05-17T22:34:25.934Z,15.94
2019-05-17T22:36:58.295Z,15.91
2019-05-17T22:39:30.772Z,15.80
2019-05-17T22:42:02.940Z,15.68
2019-05-17T22:44:34.747Z,15.70
2019-05-17T22:47:06.831Z,15.71
2019-05-17T22:49:38.837Z,15.64
2019-05-17T22:52:12.937Z,15.62
2019-05-17T22:54:47.632Z,15.65
2019-05-17T22:57:19.820Z,15.60
2019-05-17T22:59:52.285Z,15.60
2019-05-17T23:02:23.906Z,15.60
2019-05-17T23:04:55.509Z,15.54
2019-05-17T23:07:27.300Z,15.52
2019-05-17T23:09:59.161Z,15.37
2019-05-17T23:12:30.989Z,15.41
2019-05-17T23:15:04.137Z,15.39
2019-05-17T23:17:36.458Z,15.46
2019-05-17T23:20:10.051Z,15.45
2019-05-17T23:22:42.575Z,15.45
2019-05-17T23:25:14.909Z,15.43
2019-05-17T23:27:46.665Z,15.38
2019-05-17T23:30:19.773Z,15.39
2019-05-17T23:32:55.241Z,15.28
2019-05-17T23:35:26.976Z,15.22
2019-05-17T23:38:04.278Z,15.23
2019-05-17T23:40:36.189Z,15.16
2019-05-17T23:43:07.991Z,15.14
2019-05-17T23:45:39.974Z,15.15
2019-05-17T23:48:11.995Z,15.07
2019-05-17T23:50:43.640Z,15.04
2019-05-17T23:53:16.120Z,15.01
2019-05-17T23:55:48.074Z,14.96
2019-05-17T23:58:20.028Z,14.95
